Stanley, ID

12:53 AM MDT on September 02, 2014 (GMT -0600)
Stanley | Change Station
CLOSE
Current Station
Airport
Location: Stanley,
Elevation: 6496 ft
Nearby Weather Stations

Elev 6496 ft 44.17 °N, 114.93 °W | Updated 2 minutes ago

Clear
Clear
35 °F
Feels Like 35 °F
N
0
Wind Variable Wind from North
Gusts 8 mph

Today
High -- | Low -- °F
--% Chance of Precip.
Yesterday
High -- | Low -- °F
Precip. -- in
7:03 AM 8:13 PM
Waxing Crescent, 48% visible
Pressure 29.98 in
Visibility -9999.0 miles
Clouds
Dew Point 29 °F
Humidity 78%
Rainfall 0.00 in
Snow Depth Not available.
UV Not available.
Pollen 7.30 out of 12
Air Quality Not available.
Flu Activity Not available.
METAR KSNT 020651Z AUTO 00000KT 02/M02 A3016 RMK AO1 SLP152 T00171017 402061028

More Conditions Fewer Conditions

Pressure 29.98 in
Visibility -9999.0 miles
Clouds
Dew Point 29 °F
Humidity 78%
Rainfall 0.00 in
Snow Depth Not available.
UV Not available.
Pollen 7.30 out of 12
Air Quality Not available.
Flu Activity Not available.
METAR KSNT 020651Z AUTO 00000KT 02/M02 A3016 RMK AO1 SLP152 T00171017 402061028

More Conditions Fewer Conditions

10-Day Weather Forecast

Almanac

Astronomy

Sep. 02, 2014 Rise Set
Actual Time 7:03 AM MDT 8:13 PM MDT
Civil Twilight 6:33 AM MDT 8:43 PM MDT
Nautical Twilight 5:57 AM MDT 9:19 PM MDT
Astronomical Twilight 5:19 AM MDT 9:56 PM MDT
Moon 3:07 PM MDT 12:04 AM MDT
Length of Visible Light 14h 09m
Length of Day
13h 10m
Tomorrow will be 2m 57s shorter.
Waxing Crescent, 48% of the Moon is Illuminated
Today
Waxing Crescent
Sep 2
First Quarter
Sep 8
Full
Sep 15
Last Quarter
Sep 24
New

Today's Extremes

State Highs State Lows

Community

WunderPhotos

Upload Photos

1,749,589 photos uploaded!

WunderBlogs® & News

Nearby

Snow Depth

Station Depth Elevation
Banner Summit 0 in 7040 ft
Mill Creek Summit 2 in 8800 ft
Galena 0 in 7440 ft
Galena Summit 0 in 8780 ft
Jackson Peak 1 in 7070 ft

Earthquake Activity

City Distance Mag. Time & Date
No recent earthquake activity has been reported nearby.
Minimum magnitude displayed is 2.5.

Coastal Water Temperatures

Place Temperature
No Stations Reporting

Nearby Weather Stations